Weather at Brest Bretagne Airport

Public forecast

Using degrees Celsius for public forecast. Weather courtesy of forecast.io.

Current aviation weather report (METAR) for Brest Bretagne Airport

2024/05/28 03:30 (retrieved 14 minutes ago)

LFRB 280330Z AUTO 25012KT 4000 -RADZ BR OVC003 14/13 Q1017 TEMPO 2000 RADZ

Closest aviation forecast (TAF) to Brest Bretagne Airport

Forecast is more than 6 hours old.

Closest forecast is Lanvéoc-Poulmic Air Base, 10.0 nm (18.6 km) S.

2024/05/27 17:00 Ammendment (retrieved 11 hours ago)

TAF AMD LFRL 271756Z 2717/2812 CNL